Terminal Aerodrome Forecast
Issued by NWS

Home | Current Version | Previous Version | Text Only | Print | Product List | Glossary On
Versions: 1 2 3 4 5 6 7 8 9 10 11 12 13 14 15 16 17 18 19 20 21 22 23 24 25 26 27 28 29 30 31 32 33 34 35 36 37 38 39 40
000
FTUS45 KBOI 212320
TAFTWF
TAF
KTWF 212320Z 2200/2224 27015KT P6SM SCT060
     FM220200 22010KT P6SM SCT250
     FM220900 18008KT P6SM SCT250
     FM221600 11006KT P6SM BKN250
     FM222000 04008KT P6SM BKN250=

USA.gov is the U.S. government's official web portal to all federal, state and local government web resources and services.